Latest Weather Observations for Rhyll

IDV60801

Issued at 11:05 pm EDT Saturday 1 November 2014 (issued every 30 minutes, with the page automatically refreshed every 10 minutes)

About weather observations | Map of weather stations | Latest weather observations for VIC | Other Formats
Station Details ID: 086373 Name: RHYLL Lat: -38.46 Lon: 145.31 Height: 13.4 m
Data from the previous 72 hours. | See also: Recent months at Rhyll
Date/Time
EDT
Temp
°C
App
Temp
°C
Dew
Point
Rel
Hum
%
Delta-T
°C
Wind Press
QNH
hPa
Press
MSL
hPa
Rain
since 9 am
mm
Dir
 
Spd
km/h
Gust
km/h
Spd
kts
Gust
kts
01/11:00pm 9.7 6.0 6.2 79 1.6 W 15 24 8 13 1014.1 1014.1 3.0
01/10:30pm 8.7 4.0 6.0 83 1.2 W 20 41 11 22 1013.8 1013.8 3.0
01/10:00pm 9.1 5.5 5.1 76 1.8 W 13 20 7 11 1013.5 1013.5 2.0
01/09:30pm 8.7 4.9 5.8 82 1.3 W 15 30 8 16 1013.5 1013.5 2.0
01/09:00pm 8.0 3.2 5.6 85 1.1 W 20 41 11 22 1013.3 1013.3 2.0
01/08:38pm 8.2 1.7 4.6 78 1.6 W 28 52 15 28 1013.2 1013.2 1.4
01/08:30pm 10.8 6.0 4.5 65 2.8 WSW 19 30 10 16 1012.5 1012.5 1.2
01/08:00pm 10.7 5.4 3.0 59 3.3 WSW 20 37 11 20 1012.1 1012.1 1.2
01/07:30pm 11.2 5.6 3.7 60 3.3 W 22 39 12 21 1011.4 1011.4 1.2
01/07:00pm 10.5 5.9 5.5 71 2.3 WSW 19 32 10 17 1011.0 1011.0 1.2
01/06:47pm 10.6 4.3 5.6 71 2.3 WSW 28 54 15 29 1010.8 1010.8 1.2
01/06:30pm 10.5 6.3 5.9 73 2.1 W 17 41 9 22 1010.5 1010.5 1.2
01/06:00pm 9.2 4.7 6.8 85 1.1 WSW 20 37 11 20 1010.4 1010.4 1.2
01/05:37pm 12.4 5.7 3.6 55 3.9 W 28 50 15 27 1009.7 1009.7 0.8
01/05:30pm 12.6 6.4 4.1 56 3.8 W 26 50 14 27 1009.5 1009.5 0.8
01/05:00pm 12.1 5.4 5.5 64 3.1 W 30 59 16 32 1009.1 1009.1 0.8
01/04:39pm 12.2 6.0 6.0 66 2.9 WSW 28 56 15 30 1008.8 1008.8 0.4
01/04:30pm 12.9 7.1 6.3 64 3.1 WSW 26 46 14 25 1008.6 1008.6 0.4
01/04:27pm 12.4 6.1 5.8 64 3.1 WSW 28 57 15 31 1008.4 1008.4 0.4
01/04:00pm 10.2 5.8 7.3 82 1.4 W 20 33 11 18 1008.2 1008.2 0.4
01/03:30pm 12.6 7.5 5.8 63 3.2 W 22 46 12 25 1007.9 1007.9 0.0
01/03:00pm 11.8 4.1 5.4 65 3.0 WSW 35 63 19 34 1007.8 1007.8 0.0
01/02:50pm 12.3 4.7 5.7 64 3.1 WSW 35 70 19 38 1007.5 1007.5 0.0
01/02:30pm 14.4 7.8 6.0 57 4.0 WSW 30 52 16 28 1006.8 1006.8 0.0
01/02:00pm 13.3 5.5 6.6 64 3.2 WSW 37 61 20 33 1006.4 1006.4 0.0
01/01:30pm 14.2 7.4 6.8 61 3.6 WSW 32 57 17 31 1006.0 1006.0 0.0
01/01:03pm 14.6 8.9 8.3 66 3.2 W 28 48 15 26 1005.6 1005.6 0.0
01/01:00pm 14.6 9.2 7.9 64 3.3 W 26 48 14 26 1005.6 1005.6 0.0
01/12:30pm 13.6 7.5 6.5 62 3.4 WSW 28 44 15 24 1005.5 1005.5 0.0
01/12:00pm 13.1 9.5 8.2 72 2.4 W 17 28 9 15 1005.2 1005.2 0.0
01/11:30am 13.9 9.3 8.1 68 2.9 WSW 22 44 12 24 1004.7 1004.7 0.0
01/11:18am 13.7 7.8 7.7 67 3.0 WSW 28 56 15 30 1004.7 1004.7 0.0
01/11:00am 14.4 9.3 7.5 63 3.4 WSW 24 44 13 24 1004.3 1004.2 0.0
01/10:30am 14.2 10.6 8.4 68 2.9 WSW 17 33 9 18 1004.0 1004.0 0.0
01/10:00am 13.3 10.0 8.2 71 2.5 WSW 15 32 8 17 1003.8 1003.8 0.0
01/09:30am 13.0 10.1 10.9 87 1.1 WSW 17 32 9 17 1003.3 1003.3 0.0
01/09:00am 11.2 7.1 10.0 92 0.6 WSW 22 50 12 27 1003.1 1003.1 13.0
01/08:30am 11.9 8.5 11.3 96 0.3 SW 20 35 11 19 1002.4 1002.4 12.8
01/08:00am 12.0 9.2 11.2 95 0.4 WSW 17 32 9 17 1001.7 1001.7 12.0
01/07:30am 11.8 8.9 10.9 94 0.5 W 17 30 9 16 1001.0 1001.0 11.8
01/07:00am 13.3 12.4 12.7 96 0.3 W 9 17 5 9 1000.5 1000.5 11.0
01/06:30am 13.3 12.4 12.5 95 0.4 W 9 15 5 8 1000.1 1000.1 8.8
01/06:00am 13.8 13.0 12.9 94 0.5 W 9 20 5 11 999.5 999.5 5.2
01/05:30am 13.8 14.6 12.5 92 0.7 CALM 0 4 0 2 998.9 998.9 2.0
01/05:00am 13.9 13.5 12.3 90 0.9 WSW 6 9 3 5 998.8 998.8 1.4
01/04:30am 14.7 14.2 12.0 84 1.5 W 6 9 3 5 999.3 999.3 0.0
01/04:00am 14.7 15.2 11.7 82 1.6 CALM 0 4 0 2 999.1 999.1 0.0
01/03:30am 15.0 14.3 11.4 79 1.9 WSW 6 11 3 6 999.0 999.0 0.0
01/03:00am 15.1 14.0 12.1 82 1.6 WSW 9 15 5 8 999.8 999.8 0.0
01/02:30am 15.3 13.6 12.6 84 1.5 WSW 13 28 7 15 1000.1 1000.1 0.0
01/02:00am 15.3 13.0 13.0 86 1.3 WSW 17 30 9 16 999.5 999.5 0.0
01/01:30am 15.4 13.1 13.1 86 1.3 SW 17 32 9 17 999.2 999.2 0.0
01/01:00am 15.8 13.6 13.3 85 1.4 WSW 17 37 9 20 999.4 999.4 0.0
01/12:30am 16.3 14.7 12.8 80 1.9 SW 13 26 7 14 997.9 997.9 0.0
01/12:00am 16.7 14.6 12.5 76 2.3 WSW 15 33 8 18 998.3 998.3 0.0
 
Date/Time
EDT
Temp
°C
App
Temp
°C
Dew
Point
Rel
Hum
%
Delta-T
°C
Wind Press
QNH
hPa
Press
MSL
hPa
Rain
since 9 am
mm
Dir
 
Spd
km/h
Gust
km/h
Spd
kts
Gust
kts
31/11:30pm 17.7 13.2 11.5 67 3.4 SW 26 43 14 23 997.6 997.6 0.0
31/11:01pm 20.0 14.5 9.3 50 5.7 WSW 28 46 15 25 997.6 997.6 0.0
31/11:00pm 20.2 15.1 9.2 49 5.9 WSW 26 46 14 25 997.5 997.5 0.0
31/10:30pm 21.6 18.6 12.5 56 5.2 N 20 22 11 12 995.7 995.6 0.0
31/10:00pm 21.3 19.3 12.7 58 4.9 N 15 19 8 10 996.1 996.0 0.0
31/09:30pm 22.0 18.8 12.0 53 5.6 NNE 20 28 11 15 996.4 996.3 0.0
31/09:00pm 21.8 18.8 12.1 54 5.5 N 19 22 10 12 996.8 996.7 0.0
31/08:30pm 22.1 19.0 12.1 53 5.6 NNE 20 24 11 13 997.1 997.1 0.0
31/08:00pm 22.6 19.6 12.0 51 6.0 NNE 19 20 10 11 997.5 997.5 0.0
31/07:30pm 23.5 22.2 11.2 46 6.9 N 9 15 5 8 998.0 998.0 0.0
31/07:00pm 22.7 20.5 12.0 50 6.1 NNW 15 20 8 11 998.5 998.5 0.0
31/06:30pm 24.0 22.7 11.3 45 7.1 NNW 9 17 5 9 999.1 999.1 0.0
31/06:00pm 24.8 21.7 11.7 44 7.5 NNW 19 22 10 12 999.5 999.5 0.0
31/05:30pm 23.7 20.7 12.0 48 6.6 NNW 19 24 10 13 999.9 999.9 0.0
31/05:00pm 23.5 20.4 12.2 49 6.5 NNW 20 24 11 13 1000.3 1000.3 0.0
31/04:30pm 23.4 20.0 12.4 50 6.3 NNW 22 30 12 16 1000.5 1000.5 0.0
31/04:00pm 24.0 19.3 12.0 47 6.8 NNW 28 35 15 19 1000.8 1000.8 0.0
31/03:30pm 25.4 22.0 9.3 36 8.8 NNW 17 26 9 14 1001.7 1001.7 0.0
31/03:00pm 26.3 24.1 12.0 41 8.2 NNW 15 19 8 10 1002.4 1002.4 0.0
31/02:30pm 25.9 23.0 10.9 39 8.4 NNW 17 26 9 14 1003.0 1003.0 0.0
31/02:00pm 24.7 23.4 13.6 50 6.5 N 13 19 7 10 1003.6 1003.6 0.0
31/01:30pm 22.6 21.3 14.7 61 4.7 NNE 15 20 8 11 1004.3 1004.3 0.0
31/01:00pm 20.7 18.5 14.4 67 3.7 N 19 24 10 13 1004.8 1004.8 0.0
31/12:30pm 20.6 18.5 13.6 64 4.0 N 17 26 9 14 1005.2 1005.2 0.0
31/12:00pm 22.6 22.1 15.0 62 4.5 NNE 11 19 6 10 1006.2 1006.2 0.0
31/11:30am 20.1 19.2 13.8 67 3.6 NNE 11 17 6 9 1007.1 1007.1 0.0
31/11:00am 18.1 17.2 13.6 75 2.6 NNE 11 15 6 8 1007.8 1007.8 0.0
31/10:30am 16.4 14.7 12.4 77 2.2 NNE 13 19 7 10 1008.4 1008.4 0.0
31/10:00am 15.3 13.4 11.9 80 1.8 NNE 13 19 7 10 1008.7 1008.7 0.0
31/09:30am 14.7 13.4 11.1 79 1.9 NNE 9 15 5 8 1009.0 1009.0 0.0
31/09:00am 14.7 12.3 11.3 80 1.8 NE 15 19 8 10 1009.4 1009.4 0.0
31/08:30am 14.1 10.7 11.1 82 1.6 NNE 20 22 11 12 1009.8 1009.8 0.0
31/08:00am 13.1 9.5 10.5 84 1.4 NE 20 22 11 12 1010.0 1010.0 0.0
31/07:30am 12.8 9.1 10.2 84 1.3 NE 20 24 11 13 1010.3 1010.3 0.0
31/07:00am 12.6 10.8 10.8 89 0.9 NNE 11 17 6 9 1010.6 1010.6 0.0
31/06:30am 11.5 10.2 9.9 90 0.8 NE 7 13 4 7 1010.7 1010.7 0.0
31/06:00am 11.5 9.8 9.9 90 0.8 NE 9 13 5 7 1010.8 1010.8 0.0
31/05:30am 11.8 9.8 10.2 90 0.8 NE 11 13 6 7 1010.6 1010.6 0.0
31/05:00am 11.7 9.7 10.1 90 0.8 NE 11 15 6 8 1010.7 1010.7 0.0
31/04:30am 11.9 10.0 10.5 91 0.7 NE 11 15 6 8 1010.8 1010.8 0.0
31/04:00am 11.8 10.3 10.4 91 0.7 NE 9 11 5 6 1011.2 1011.2 0.0
31/03:30am 11.8 9.9 10.4 91 0.7 NE 11 17 6 9 1011.5 1011.5 0.0
31/03:00am 11.9 10.0 10.6 92 0.7 NE 11 13 6 7 1011.7 1011.7 0.0
31/02:30am 11.7 10.8 10.6 93 0.6 NNE 6 9 3 5 1012.1 1012.1 0.0
31/02:00am 11.7 11.1 10.3 91 0.7 NNW 4 6 2 3 1012.6 1012.6 0.0
31/01:30am 11.8 12.0 10.4 91 0.7 CALM 0 0 0 0 1013.4 1013.4 0.0
31/01:00am 11.5 11.6 10.1 91 0.7 CALM 0 0 0 0 1013.8 1013.8 0.0
31/12:30am 11.6 11.7 10.0 90 0.8 CALM 0 0 0 0 1013.8 1013.8 0.0
31/12:00am 11.9 12.0 10.1 89 0.9 CALM 0 4 0 2 1014.0 1014.0 0.0
 
Date/Time
EDT
Temp
°C
App
Temp
°C
Dew
Point
Rel
Hum
%
Delta-T
°C
Wind Press
QNH
hPa
Press
MSL
hPa
Rain
since 9 am
mm
Dir
 
Spd
km/h
Gust
km/h
Spd
kts
Gust
kts
30/11:30pm 12.0 11.7 10.1 88 1.0 S 2 4 1 2 1014.1 1014.1 0.0
30/11:00pm 12.4 12.2 10.3 87 1.1 SSW 2 4 1 2 1014.2 1014.2 0.0
30/10:30pm 12.3 11.6 10.0 86 1.2 SSE 4 7 2 4 1014.2 1014.2 0.0
30/10:00pm 12.6 11.5 10.0 84 1.3 S 6 7 3 4 1014.1 1014.1 0.0
30/09:30pm 13.1 12.0 10.1 82 1.5 S 6 9 3 5 1014.1 1014.1 0.0
30/09:00pm 13.4 12.4 10.2 81 1.7 S 6 9 3 5 1013.9 1013.9 0.0
30/08:30pm 13.3 12.2 10.1 81 1.7 S 6 9 3 5 1013.8 1013.8 0.0
30/08:00pm 13.7 12.6 10.5 81 1.7 S 7 13 4 7 1013.7 1013.7 0.0
30/07:30pm 14.3 12.8 10.7 79 1.9 S 9 17 5 9 1013.6 1013.6 0.0
30/07:00pm 15.2 13.4 11.0 76 2.2 SSW 11 19 6 10 1013.5 1013.5 0.0
30/06:30pm 15.2 13.3 10.6 74 2.4 S 11 20 6 11 1013.5 1013.5 0.0
30/06:00pm 15.9 13.7 10.7 71 2.8 SSW 13 22 7 12 1013.4 1013.4 0.0
30/05:30pm 16.2 13.4 10.1 67 3.2 SSW 15 26 8 14 1013.3 1013.3 0.0
30/05:00pm 16.8 13.9 9.7 63 3.7 SSW 15 24 8 13 1013.2 1013.2 0.0
30/04:30pm 16.8 13.9 9.7 63 3.7 SSW 15 28 8 15 1013.3 1013.3 0.0
30/04:00pm 17.6 14.8 10.0 61 4.0 SSW 15 24 8 13 1013.5 1013.5 0.0
30/03:30pm 17.8 15.2 9.4 58 4.4 SSW 13 28 7 15 1013.6 1013.6 0.0
30/03:00pm 17.6 15.1 9.8 60 4.1 SSW 13 26 7 14 1013.6 1013.6 0.0
30/02:30pm 17.8 15.9 8.9 56 4.6 WSW 9 17 5 9 1013.7 1013.7 0.0
30/02:00pm 17.5 15.1 8.6 56 4.6 WSW 11 22 6 12 1014.1 1014.1 0.0
30/01:30pm 17.4 14.4 9.3 59 4.2 W 15 26 8 14 1014.3 1014.3 0.0
30/01:00pm 16.3 13.6 9.0 62 3.8 W 13 24 7 13 1014.7 1014.7 0.0
30/12:30pm 17.3 15.1 9.5 60 4.1 W 11 22 6 12 1014.9 1014.9 0.0
30/12:00pm 17.5 15.2 8.9 57 4.4 WNW 11 22 6 12 1014.8 1014.8 0.0
30/11:30am 16.4 13.9 8.4 59 4.1 WSW 11 20 6 11 1015.0 1015.0 0.0
30/11:00am 16.1 14.2 9.1 63 3.6 NW 9 19 5 10 1015.2 1015.2 0.0
30/10:30am 15.9 14.1 9.3 65 3.4 NW 9 20 5 11 1015.5 1015.5 0.0
30/10:00am 15.7 14.1 10.2 70 2.9 WNW 9 20 5 11 1015.5 1015.5 0.0
30/09:30am 14.9 13.0 10.5 75 2.3 NW 11 20 6 11 1015.4 1015.4 0.0
30/09:00am 14.9 13.8 10.7 76 2.2 WNW 7 17 4 9 1015.3 1015.3 0.2
30/08:30am 14.6 13.1 10.4 76 2.2 W 9 19 5 10 1015.3 1015.3 0.2
30/08:00am 14.2 12.7 10.6 79 1.9 WNW 9 20 5 11 1014.8 1014.8 0.2
30/07:30am 14.1 13.1 10.9 81 1.7 W 7 17 4 9 1014.9 1014.9 0.2
30/07:00am 13.2 12.4 10.9 86 1.2 W 6 11 3 6 1014.4 1014.4 0.2
30/06:30am 13.2 12.3 10.7 85 1.3 WNW 6 11 3 6 1013.9 1013.9 0.2
30/06:00am 13.6 12.6 11.0 84 1.4 NW 7 17 4 9 1013.8 1013.8 0.2
30/05:30am 13.6 12.9 11.3 86 1.2 NW 6 13 3 7 1014.0 1014.0 0.2
30/05:00am 13.5 12.7 11.2 86 1.2 WNW 6 9 3 5 1014.2 1014.2 0.2
30/04:30am 13.9 13.1 11.6 86 1.2 NW 7 15 4 8 1014.0 1014.0 0.2
30/04:00am 14.0 12.9 11.9 87 1.1 NNW 9 15 5 8 1014.1 1014.1 0.2
30/03:30am 13.8 12.0 12.2 90 0.9 N 13 19 7 10 1014.1 1014.1 0.2
30/03:00am 13.4 10.7 11.6 89 1.0 N 17 22 9 12 1014.4 1014.4 0.2
30/02:30am 13.3 11.7 11.7 90 0.9 N 11 17 6 9 1014.6 1014.6 0.2
30/02:00am 13.4 11.9 12.0 91 0.8 N 11 15 6 8 1014.9 1014.9 0.2
30/01:30am 13.1 10.4 11.7 91 0.7 N 17 20 9 11 1015.4 1015.4 0.2
30/01:00am 13.4 11.9 12.0 91 0.8 NNW 11 17 6 9 1015.8 1015.8 0.2
30/12:30am 13.1 12.5 11.7 91 0.7 NNW 6 9 3 5 1016.0 1016.0 0.2
30/12:00am 12.5 11.6 10.7 89 0.9 W 6 9 3 5 1016.0 1016.0 0.2
 
Date/Time
EDT
Temp
°C
App
Temp
°C
Dew
Point
Rel
Hum
%
Delta-T
°C
Wind Press
QNH
hPa
Press
MSL
hPa
Rain
since 9 am
mm
Dir
 
Spd
km/h
Gust
km/h
Spd
kts
Gust
kts
29/11:30pm 12.8 12.3 10.9 88 1.0 W 4 6 2 3 1015.9 1015.9 0.2

Other Formats:

Comma delimited format used in spreadsheet applications
http://www.bom.gov.au/fwo/IDV60801/IDV60801.94892.axf

JavaScript Object Notation format (JSON) in row-major order
http://www.bom.gov.au/fwo/IDV60801/IDV60801.94892.json